createdAt,value
2023-03-31T00:00:01.308Z,68.62
2023-03-31T00:10:49.240Z,68.51
2023-03-31T00:21:25.531Z,68.34
2023-03-31T00:31:51.880Z,68.02
2023-03-31T00:42:17.769Z,67.54
2023-03-31T00:52:43.677Z,67.29
2023-03-31T01:03:11.425Z,67.32
2023-03-31T01:13:39.566Z,66.99
2023-03-31T01:24:50.082Z,66.90
2023-03-31T01:35:44.086Z,67.14
2023-03-31T01:46:19.464Z,67.68
2023-03-31T01:56:49.445Z,67.78
2023-03-31T02:07:19.104Z,67.82
2023-03-31T02:17:51.047Z,67.88
2023-03-31T02:28:22.329Z,67.93
2023-03-31T02:38:51.617Z,67.75
2023-03-31T02:49:19.160Z,67.86
2023-03-31T02:59:59.890Z,68.07
2023-03-31T03:10:36.814Z,68.09
2023-03-31T03:21:02.857Z,68.19
2023-03-31T03:31:37.656Z,68.41
2023-03-31T03:42:03.433Z,68.41
2023-03-31T03:52:29.585Z,68.51
2023-03-31T04:02:55.618Z,68.50
2023-03-31T04:13:22.315Z,68.50
2023-03-31T04:23:48.165Z,68.83
2023-03-31T04:34:16.217Z,68.45
2023-03-31T04:44:41.900Z,68.45
2023-03-31T04:55:09.028Z,68.25
2023-03-31T05:05:34.895Z,68.49
2023-03-31T05:16:01.997Z,68.68
2023-03-31T05:26:28.075Z,68.24
2023-03-31T05:36:54.272Z,67.68
2023-03-31T05:47:19.811Z,68.24
2023-03-31T05:57:45.204Z,68.38
2023-03-31T06:08:11.735Z,68.04
2023-03-31T06:18:38.759Z,66.88
2023-03-31T06:29:05.027Z,65.78
2023-03-31T06:39:31.190Z,65.04
2023-03-31T06:49:57.078Z,64.08
2023-03-31T07:00:26.025Z,62.96
2023-03-31T07:10:55.291Z,61.88
2023-03-31T07:21:22.014Z,60.86
2023-03-31T07:31:50.021Z,60.88
2023-03-31T07:42:16.286Z,60.31
2023-03-31T07:52:45.444Z,60.06
2023-03-31T08:03:12.585Z,59.45
2023-03-31T08:13:38.583Z,59.38
2023-03-31T08:24:06.055Z,58.57
2023-03-31T08:34:32.182Z,58.44
2023-03-31T08:45:05.012Z,59.46
2023-03-31T08:55:38.348Z,59.04
2023-03-31T09:06:07.179Z,57.82
2023-03-31T09:16:38.344Z,57.78
2023-03-31T09:27:07.489Z,57.03
2023-03-31T09:37:35.247Z,57.36
2023-03-31T09:48:03.033Z,57.51
2023-03-31T09:58:27.534Z,57.18
2023-03-31T10:08:56.740Z,57.37
2023-03-31T10:19:25.832Z,57.82
2023-03-31T10:29:56.180Z,58.17
2023-03-31T10:40:25.965Z,58.12
2023-03-31T10:50:51.627Z,57.81
2023-03-31T11:01:32.466Z,57.67
2023-03-31T11:12:09.541Z,57.74
2023-03-31T11:22:45.328Z,57.29
2023-03-31T11:33:33.777Z,56.71
2023-03-31T11:44:04.057Z,56.49
2023-03-31T11:54:34.766Z,55.70
2023-03-31T12:05:02.278Z,55.30
2023-03-31T12:15:32.676Z,54.04
2023-03-31T12:26:07.548Z,53.23
2023-03-31T12:36:47.004Z,53.01
2023-03-31T12:47:30.345Z,52.21
2023-03-31T12:58:15.946Z,51.37
2023-03-31T13:08:56.249Z,50.80
2023-03-31T13:19:32.947Z,51.02
2023-03-31T13:29:58.864Z,51.07
2023-03-31T13:40:53.462Z,52.05
2023-03-31T13:51:27.915Z,53.35
2023-03-31T14:02:15.886Z,55.32
2023-03-31T14:12:42.003Z,57.09
2023-03-31T14:23:18.291Z,58.60
2023-03-31T14:33:51.933Z,59.74
2023-03-31T14:44:19.364Z,60.81
2023-03-31T14:54:48.647Z,61.83
2023-03-31T15:05:30.139Z,62.54
2023-03-31T15:15:55.990Z,62.61
2023-03-31T15:26:28.111Z,62.68
2023-03-31T15:37:02.692Z,63.33
2023-03-31T15:47:31.140Z,63.16
2023-03-31T15:57:58.583Z,62.64
2023-03-31T16:08:32.750Z,61.90
2023-03-31T16:19:05.254Z,62.48
2023-03-31T16:29:31.870Z,62.91
2023-03-31T16:39:57.902Z,63.18
2023-03-31T16:50:23.631Z,63.03
2023-03-31T17:00:50.351Z,63.31
2023-03-31T17:11:16.448Z,62.73
2023-03-31T17:21:42.150Z,61.37
2023-03-31T17:32:07.760Z,60.78
2023-03-31T17:42:33.839Z,60.94
2023-03-31T17:52:59.636Z,60.18
2023-03-31T18:03:25.587Z,59.58
2023-03-31T18:13:51.653Z,60.03
2023-03-31T18:24:18.870Z,60.31
2023-03-31T18:34:44.611Z,60.60
2023-03-31T18:45:11.269Z,60.57
2023-03-31T18:55:36.999Z,60.28
2023-03-31T19:06:10.246Z,60.36
2023-03-31T19:16:41.932Z,60.21
2023-03-31T19:27:08.190Z,60.40
2023-03-31T19:37:34.014Z,60.83
2023-03-31T19:47:59.845Z,60.58
2023-03-31T19:58:25.464Z,60.32
2023-03-31T20:08:55.787Z,60.29
2023-03-31T20:19:23.365Z,59.90
2023-03-31T20:29:49.507Z,59.84
2023-03-31T20:40:16.123Z,59.99
2023-03-31T20:50:42.037Z,60.26
2023-03-31T21:01:08.606Z,60.56
2023-03-31T21:11:34.318Z,60.54
2023-03-31T21:22:00.098Z,60.53
2023-03-31T21:32:26.125Z,60.32
2023-03-31T21:42:52.100Z,60.18
2023-03-31T21:53:17.514Z,59.86
2023-03-31T22:03:43.343Z,59.76
2023-03-31T22:14:09.303Z,59.66
2023-03-31T22:24:34.844Z,59.71
2023-03-31T22:35:01.508Z,60.02
2023-03-31T22:45:27.541Z,60.39
2023-03-31T22:55:54.603Z,60.64
2023-03-31T23:06:22.048Z,60.80
2023-03-31T23:16:48.061Z,60.89
2023-03-31T23:27:13.858Z,61.07
2023-03-31T23:37:40.163Z,61.16
2023-03-31T23:48:06.829Z,61.29
2023-03-31T23:58:33.145Z,61.61
